Time;durP1;ratioP1;P1;durP2;ratioP2;P2;SDS_P1;SDS_P2;PMS_P1;PMS_P2;Temp;Humidity;BMP_temperature;BMP_pressure;BME280_temperature;BME280_humidity;BME280_pressure;Samples;Min_cycle;Max_cycle;Signal;HPM_P1;HPM_P2
2023/04/16 00:00:15;;;;;;;6.67;4.17;;;9.80;97.30;;;;;;4938372;29;20702;-85
2023/04/16 00:02:41;;;;;;;6.63;4.30;;;9.80;97.30;;;;;;4952713;28;20202;-86
2023/04/16 00:05:07;;;;;;;8.60;4.97;;;9.80;97.30;;;;;;4961414;28;20192;-85
2023/04/16 00:07:32;;;;;;;7.00;3.87;;;9.80;97.30;;;;;;4952286;28;20184;-85
2023/04/16 00:09:58;;;;;;;13.80;6.93;;;9.80;97.30;;;;;;4943181;29;20630;-85
2023/04/16 00:12:24;;;;;;;3.27;3.07;;;9.80;97.30;;;;;;4942760;28;20195;-86
2023/04/16 00:14:49;;;;;;;7.23;4.87;;;9.80;97.30;;;;;;4933444;28;20227;-84
2023/04/16 00:17:15;;;;;;;4.50;3.17;;;9.80;97.30;;;;;;4941458;29;20271;-85
2023/04/16 00:19:40;;;;;;;3.63;2.30;;;9.80;97.30;;;;;;4939594;29;20221;-85
2023/04/16 00:22:06;;;;;;;2.43;2.30;;;9.80;97.30;;;;;;4932515;29;20319;-85
2023/04/16 00:24:31;;;;;;;5.00;3.40;;;9.70;97.30;;;;;;4935606;29;20609;-84
2023/04/16 00:26:56;;;;;;;2.97;2.77;;;9.70;97.30;;;;;;4935726;29;20262;-85
2023/04/16 00:29:22;;;;;;;10.80;4.30;;;9.70;97.30;;;;;;4945817;29;20241;-85
2023/04/16 00:31:48;;;;;;;3.47;2.87;;;9.70;97.30;;;;;;4950692;28;20192;-85
2023/04/16 00:34:13;;;;;;;5.33;2.90;;;9.70;97.30;;;;;;4944976;28;20578;-85
2023/04/16 00:36:39;;;;;;;4.73;3.80;;;9.70;97.30;;;;;;4937621;28;20184;-85
2023/04/16 00:39:04;;;;;;;6.70;4.10;;;9.70;97.30;;;;;;4935778;29;20202;-85
2023/04/16 00:41:30;;;;;;;5.00;3.43;;;9.70;97.30;;;;;;4945176;28;20182;-85
2023/04/16 00:43:58;;;;;;;6.90;6.37;;;9.70;97.30;;;;;;4937254;28;20195;-85
2023/04/16 00:46:23;;;;;;;5.40;4.63;;;9.70;97.30;;;;;;4943609;28;20172;-85
2023/04/16 00:48:50;;;;;;;11.03;3.50;;;9.70;97.30;;;;;;4945218;29;20763;-86
2023/04/16 00:51:21;;;;;;;2.73;2.57;;;9.60;97.30;;;;;;4946799;28;20555;-85
2023/04/16 00:53:47;;;;;;;3.60;3.47;;;9.60;97.30;;;;;;4938559;29;21249;-85
2023/04/16 00:56:13;;;;;;;5.50;3.00;;;9.60;97.30;;;;;;4952441;28;20412;-85
2023/04/16 00:58:39;;;;;;;4.03;3.67;;;9.70;97.30;;;;;;4949978;28;20282;-85
2023/04/16 01:01:13;;;;;;;4.50;4.23;;;9.60;97.30;;;;;;4957927;28;20191;-86
2023/04/16 01:03:47;;;;;;;3.37;3.07;;;9.60;97.30;;;;;;4935722;29;20522;-85
2023/04/16 01:06:13;;;;;;;4.30;3.63;;;9.60;97.30;;;;;;4938569;29;20420;-85
2023/04/16 01:08:42;;;;;;;4.30;3.13;;;9.60;97.30;;;;;;4946155;29;20978;-86
2023/04/16 01:11:31;;;;;;;10.53;5.17;;;9.60;97.30;;;;;;4941998;28;20803;-85
2023/04/16 01:14:04;;;;;;;5.93;3.73;;;9.60;97.30;;;;;;4949826;28;20471;-86
2023/04/16 01:16:33;;;;;;;9.73;5.03;;;9.60;97.30;;;;;;4927883;29;20431;-85
2023/04/16 01:19:04;;;;;;;5.73;4.70;;;9.60;97.30;;;;;;4942866;29;20456;-85
2023/04/16 01:21:37;;;;;;;6.30;3.40;;;9.60;97.30;;;;;;4933460;29;20428;-85
2023/04/16 01:24:04;;;;;;;6.33;4.33;;;9.60;97.30;;;;;;4938142;29;20479;-85
2023/04/16 01:26:30;;;;;;;10.67;6.40;;;9.60;97.30;;;;;;4944632;29;20425;-85
2023/04/16 01:29:02;;;;;;;7.60;4.33;;;9.60;97.30;;;;;;4933337;28;20416;-86
2023/04/16 01:31:54;;;;;;;8.37;4.43;;;9.50;97.30;;;;;;4945081;28;20503;-86
2023/04/16 01:34:23;;;;;;;4.03;3.83;;;9.50;97.30;;;;;;4935674;29;20440;-87
2023/04/16 01:36:54;;;;;;;5.90;4.23;;;9.50;97.30;;;;;;4935313;29;20424;-85
2023/04/16 01:39:22;;;;;;;6.73;3.53;;;9.50;97.30;;;;;;4931529;29;20510;-83
2023/04/16 01:41:54;;;;;;;7.63;4.10;;;9.50;97.30;;;;;;4938615;28;20562;-83
2023/04/16 01:44:22;;;;;;;2.93;2.60;;;9.50;97.30;;;;;;4949170;28;20593;-84
2023/04/16 01:47:03;;;;;;;8.97;5.10;;;9.50;97.30;;;;;;4939244;28;20430;-86
2023/04/16 01:49:34;;;;;;;3.70;3.50;;;9.50;97.30;;;;;;4929454;29;20416;-86
2023/04/16 01:52:02;;;;;;;7.90;3.90;;;9.60;97.30;;;;;;4941819;29;20483;-86
2023/04/16 01:54:33;;;;;;;3.77;2.93;;;9.60;97.30;;;;;;4942700;28;20451;-86
2023/04/16 01:57:02;;;;;;;4.27;3.77;;;9.60;97.30;;;;;;4948782;28;20420;-85
2023/04/16 01:59:34;;;;;;;8.30;3.10;;;9.60;97.30;;;;;;4943752;28;20423;-85
2023/04/16 02:02:14;;;;;;;7.70;4.80;;;9.60;97.30;;;;;;4937736;29;20471;-85
2023/04/16 02:04:44;;;;;;;8.20;3.63;;;9.60;97.30;;;;;;4933642;29;20447;-85
2023/04/16 02:07:12;;;;;;;4.63;3.57;;;9.60;97.30;;;;;;4943915;29;20942;-85
2023/04/16 02:10:04;;;;;;;3.40;3.13;;;9.60;97.30;;;;;;4932951;29;20940;-86
2023/04/16 02:12:32;;;;;;;6.83;3.13;;;9.60;97.30;;;;;;4959539;28;20458;-85
2023/04/16 02:15:03;;;;;;;9.80;4.53;;;9.60;97.30;;;;;;4940040;28;20470;-85
2023/04/16 02:17:31;;;;;;;3.87;3.70;;;9.60;97.30;;;;;;4942676;29;20434;-85
2023/04/16 02:19:56;;;;;;;7.30;3.47;;;9.60;97.30;;;;;;4949512;28;20415;-85
2023/04/16 02:22:22;;;;;;;4.17;3.03;;;9.60;97.30;;;;;;4932483;29;21079;-86
2023/04/16 02:25:13;;;;;;;7.90;4.23;;;9.60;97.30;;;;;;4945652;29;20242;-85
2023/04/16 02:27:43;;;;;;;4.27;2.87;;;9.60;97.30;;;;;;4925336;29;20670;-85
2023/04/16 02:30:14;;;;;;;3.57;2.93;;;9.60;97.30;;;;;;4932823;29;20462;-86
2023/04/16 02:32:42;;;;;;;6.73;4.00;;;9.60;97.30;;;;;;4940070;29;20443;-87
2023/04/16 02:35:14;;;;;;;3.10;2.93;;;9.60;97.30;;;;;;4957234;28;20436;-85
2023/04/16 02:37:42;;;;;;;3.03;2.83;;;9.60;97.30;;;;;;4956976;28;20491;-85
2023/04/16 02:40:13;;;;;;;4.67;4.37;;;9.60;97.30;;;;;;4944322;28;21125;-85
2023/04/16 02:42:42;;;;;;;3.73;3.10;;;9.60;97.30;;;;;;4932539;29;20475;-84
2023/04/16 02:45:13;;;;;;;4.67;3.20;;;9.60;97.30;;;;;;4933427;29;20468;-85
2023/04/16 02:47:38;;;;;;;10.70;4.17;;;9.60;97.30;;;;;;4937062;29;20428;-86
2023/04/16 02:50:05;;;;;;;7.30;5.43;;;9.60;97.30;;;;;;4941848;29;20472;-85
2023/04/16 02:52:31;;;;;;;3.10;2.90;;;9.50;97.30;;;;;;4938432;28;20183;-85
2023/04/16 02:54:57;;;;;;;5.27;3.80;;;9.50;97.30;;;;;;4938677;29;20816;-85
2023/04/16 02:57:22;;;;;;;8.60;5.67;;;9.50;97.30;;;;;;4938436;29;20490;-85
2023/04/16 02:59:48;;;;;;;3.77;3.60;;;9.50;97.30;;;;;;4940979;29;20699;-85
2023/04/16 03:02:13;;;;;;;6.13;5.03;;;9.50;97.30;;;;;;4951956;28;20211;-85
2023/04/16 03:04:42;;;;;;;5.00;3.00;;;9.50;97.30;;;;;;4945744;28;20231;-85
2023/04/16 03:07:12;;;;;;;13.53;6.07;;;9.50;97.30;;;;;;4953768;28;20187;-85
2023/04/16 03:10:03;;;;;;;7.73;3.83;;;9.50;97.30;;;;;;4938545;28;20432;-84
2023/04/16 03:12:33;;;;;;;9.47;4.07;;;9.50;97.30;;;;;;4923299;29;20534;-84
2023/04/16 03:15:01;;;;;;;8.47;4.60;;;9.40;97.30;;;;;;4943207;29;20471;-84
2023/04/16 03:17:27;;;;;;;5.33;4.10;;;9.50;97.30;;;;;;4918149;29;20432;-86
2023/04/16 03:19:52;;;;;;;8.10;6.50;;;9.50;97.30;;;;;;4917710;29;20512;-84
2023/04/16 03:22:18;;;;;;;9.33;4.60;;;9.50;97.30;;;;;;4915147;29;20204;-85
2023/04/16 03:24:43;;;;;;;7.83;5.37;;;9.50;97.30;;;;;;4914583;29;20279;-86
2023/04/16 03:27:08;;;;;;;8.73;6.73;;;9.40;97.30;;;;;;4912599;29;20568;-85
2023/04/16 03:29:43;;;;;;;12.27;5.47;;;9.40;97.30;;;;;;4912633;29;20191;-85
2023/04/16 03:32:34;;;;;;;6.53;4.23;;;9.40;97.30;;;;;;4933866;29;20180;-85
2023/04/16 03:35:04;;;;;;;7.90;3.73;;;9.40;97.30;;;;;;4905637;29;20834;-84
2023/04/16 03:37:34;;;;;;;9.67;4.30;;;9.30;97.30;;;;;;4913830;29;20435;-85
2023/04/16 03:40:04;;;;;;;5.87;4.13;;;9.40;97.30;;;;;;4913622;29;20472;-85
2023/04/16 03:42:33;;;;;;;5.23;4.93;;;9.40;97.30;;;;;;4927104;29;20560;-84
2023/04/16 03:45:04;;;;;;;6.13;4.40;;;9.30;97.30;;;;;;4915009;29;20452;-82
2023/04/16 03:47:35;;;;;;;6.83;6.00;;;9.30;97.30;;;;;;4901925;29;20524;-85
2023/04/16 03:50:04;;;;;;;4.70;3.87;;;9.30;97.30;;;;;;4910251;29;20431;-85
2023/04/16 03:52:29;;;;;;;7.40;4.33;;;9.30;97.30;;;;;;4920152;29;20428;-85
2023/04/16 03:54:55;;;;;;;8.13;3.73;;;9.30;97.30;;;;;;4923239;29;20821;-85
2023/04/16 03:57:20;;;;;;;8.10;3.73;;;9.30;97.30;;;;;;4916621;29;20220;-85
2023/04/16 03:59:46;;;;;;;9.80;7.23;;;9.30;97.30;;;;;;4933412;29;20195;-85
2023/04/16 04:02:11;;;;;;;7.63;4.03;;;9.20;97.30;;;;;;4919108;29;20192;-85
2023/04/16 04:04:37;;;;;;;4.80;3.20;;;9.20;97.30;;;;;;4918614;29;20689;-85
2023/04/16 04:07:02;;;;;;;6.13;5.20;;;9.20;97.30;;;;;;4924756;29;20231;-85
2023/04/16 04:09:28;;;;;;;20.10;4.97;;;9.20;97.30;;;;;;4917891;29;20188;-85
2023/04/16 04:11:53;;;;;;;14.20;6.20;;;9.20;97.30;;;;;;4923425;29;20185;-86
2023/04/16 04:14:19;;;;;;;13.30;4.17;;;9.20;97.30;;;;;;4933914;29;20323;-85
2023/04/16 04:16:44;;;;;;;14.67;5.33;;;9.20;97.30;;;;;;4905554;29;20201;-85
2023/04/16 04:19:10;;;;;;;7.10;3.70;;;9.20;97.30;;;;;;4909418;29;20212;-86
2023/04/16 04:21:35;;;;;;;6.73;3.63;;;9.20;97.30;;;;;;4919335;29;20231;-85
2023/04/16 04:24:01;;;;;;;5.00;3.60;;;9.20;97.30;;;;;;4918522;29;20205;-85
2023/04/16 04:26:26;;;;;;;4.97;3.37;;;9.20;97.30;;;;;;4917483;29;20177;-87
2023/04/16 04:28:51;;;;;;;6.27;4.27;;;9.20;97.30;;;;;;4918067;29;20200;-85
2023/04/16 04:31:33;;;;;;;5.23;4.53;;;9.20;97.30;;;;;;4915034;29;20700;-86
2023/04/16 04:34:22;;;;;;;7.17;3.30;;;9.20;97.30;;;;;;4931742;29;20224;-86
2023/04/16 04:36:57;;;;;;;17.83;6.50;;;9.20;97.30;;;;;;4917597;29;20456;-86
2023/04/16 04:39:38;;;;;;;;;;;;;;;;;;;;;
2023/04/16 04:42:04;;;;;;;8.77;4.20;;;9.20;97.30;;;;;;4915219;29;20470;-85
2023/04/16 04:44:53;;;;;;;3.27;3.03;;;9.20;97.30;;;;;;4919081;29;20441;-85
2023/04/16 04:47:25;;;;;;;9.23;3.53;;;9.20;97.30;;;;;;4902939;29;20185;-86
2023/04/16 04:49:53;;;;;;;11.13;5.60;;;9.20;97.30;;;;;;4917462;29;20429;-84
2023/04/16 04:52:45;;;;;;;7.00;4.70;;;9.30;97.30;;;;;;4917588;29;20420;-84
2023/04/16 04:55:41;;;;;;;21.63;5.43;;;9.30;97.30;;;;;;4933970;29;20484;-85
2023/04/16 04:58:12;;;;;;;9.77;5.97;;;9.30;97.30;;;;;;4920193;29;20779;-85
2023/04/16 05:00:50;;;;;;;6.47;3.53;;;9.30;97.30;;;;;;4931173;29;20508;-85
2023/04/16 05:03:20;;;;;;;5.77;4.77;;;9.30;97.30;;;;;;4919337;29;20993;-85
2023/04/16 05:05:46;;;;;;;8.60;4.40;;;9.40;97.30;;;;;;4931556;29;20416;-85
2023/04/16 05:08:11;;;;;;;6.97;4.63;;;9.40;97.30;;;;;;4931863;29;20423;-84
2023/04/16 05:10:40;;;;;;;4.73;3.30;;;9.40;97.30;;;;;;4910706;29;20211;-85
2023/04/16 05:13:06;;;;;;;3.67;3.43;;;9.40;97.30;;;;;;4920695;28;20572;-85
2023/04/16 05:15:31;;;;;;;6.83;4.63;;;9.40;97.30;;;;;;4961303;28;20442;-86
2023/04/16 05:17:56;;;;;;;10.50;5.67;;;9.40;97.30;;;;;;4960493;28;20179;-85
2023/04/16 05:20:25;;;;;;;10.07;6.23;;;9.40;97.30;;;;;;4952422;29;20176;-85
2023/04/16 05:22:50;;;;;;;4.10;3.73;;;9.40;97.30;;;;;;4952694;28;20215;-85
2023/04/16 05:25:16;;;;;;;6.30;5.10;;;9.40;97.30;;;;;;4946828;28;20422;-85
2023/04/16 05:27:42;;;;;;;8.50;5.90;;;9.40;97.30;;;;;;4957577;28;20176;-85
2023/04/16 05:30:08;;;;;;;4.30;2.53;;;9.40;97.30;;;;;;4936308;28;20210;-85
2023/04/16 05:32:34;;;;;;;11.83;3.60;;;9.40;97.30;;;;;;4945058;28;20589;-85
2023/04/16 05:34:59;;;;;;;6.50;4.53;;;9.50;97.30;;;;;;4959939;28;20506;-86
2023/04/16 05:37:25;;;;;;;6.10;4.23;;;9.50;97.30;;;;;;4952912;28;20198;-85
2023/04/16 05:39:50;;;;;;;8.97;6.00;;;9.50;97.30;;;;;;4952458;28;20628;-85
2023/04/16 05:42:16;;;;;;;9.47;5.70;;;9.50;97.30;;;;;;4954489;28;20270;-87
2023/04/16 05:44:41;;;;;;;11.57;6.00;;;9.50;97.30;;;;;;4958663;28;20588;-85
2023/04/16 05:47:08;;;;;;;9.73;3.93;;;9.50;97.30;;;;;;4948444;29;20175;-84
2023/04/16 05:49:35;;;;;;;18.10;7.07;;;9.50;97.30;;;;;;4951478;28;20332;-85
2023/04/16 05:52:01;;;;;;;5.17;4.27;;;9.50;97.30;;;;;;4934269;29;20430;-85
2023/04/16 05:54:26;;;;;;;7.30;4.27;;;9.50;97.30;;;;;;4936176;29;20738;-85
2023/04/16 05:57:00;;;;;;;4.83;4.40;;;9.50;97.30;;;;;;4948025;29;20196;-84
2023/04/16 05:59:26;;;;;;;6.07;3.40;;;9.50;97.30;;;;;;4938731;29;20187;-85
2023/04/16 06:01:54;;;;;;;6.93;4.93;;;9.60;97.30;;;;;;4953502;28;20443;-83
2023/04/16 06:04:23;;;;;;;10.70;7.73;;;9.60;97.30;;;;;;4954413;28;20237;-84
2023/04/16 06:07:04;;;;;;;5.53;5.23;;;9.60;97.30;;;;;;4953432;28;20415;-84
2023/04/16 06:09:33;;;;;;;9.40;4.07;;;9.60;97.30;;;;;;4947421;28;20418;-83
2023/04/16 06:12:04;;;;;;;4.33;3.20;;;9.60;97.30;;;;;;4942722;29;20422;-80
2023/04/16 06:14:41;;;;;;;6.00;4.03;;;9.60;97.30;;;;;;4952829;28;20475;-82
2023/04/16 06:17:21;;;;;;;3.13;2.47;;;9.60;97.30;;;;;;4943202;28;20419;-83
2023/04/16 06:20:24;;;;;;;5.57;2.57;;;9.60;97.30;;;;;;4944925;28;20881;-83
2023/04/16 06:23:31;;;;;;;3.63;2.47;;;9.60;97.30;;;;;;4878686;29;20485;-85
2023/04/16 06:25:57;;;;;;;6.60;3.20;;;9.70;97.30;;;;;;4855646;29;20431;-86
2023/04/16 06:28:22;;;;;;;5.77;3.60;;;9.70;97.30;;;;;;4934176;28;20634;-85
2023/04/16 06:30:48;;;;;;;7.33;3.00;;;9.70;97.30;;;;;;4960596;28;20946;-85
2023/04/16 06:33:13;;;;;;;1.73;1.53;;;9.70;97.30;;;;;;4948451;28;20213;-85
2023/04/16 06:35:41;;;;;;;2.20;2.00;;;9.80;97.30;;;;;;4952300;29;20641;-86
2023/04/16 06:38:11;;;;;;;13.10;3.43;;;9.80;97.30;;;;;;4943183;28;20233;-84
2023/04/16 06:40:37;;;;;;;5.93;3.53;;;9.80;97.30;;;;;;4951073;29;20648;-85
2023/04/16 06:43:02;;;;;;;7.40;3.67;;;9.80;97.30;;;;;;4935541;29;20849;-85
2023/04/16 06:45:28;;;;;;;2.63;2.47;;;9.80;97.30;;;;;;4951694;28;20254;-85
2023/04/16 06:47:53;;;;;;;3.73;3.33;;;9.80;97.30;;;;;;4942969;28;20174;-85
2023/04/16 06:50:27;;;;;;;17.60;3.77;;;9.80;97.30;;;;;;4953750;28;20172;-84
2023/04/16 06:52:54;;;;;;;8.57;4.03;;;9.80;97.30;;;;;;4958966;28;20184;-85
2023/04/16 06:55:25;;;;;;;2.23;1.80;;;9.80;97.30;;;;;;4949250;28;20702;-85
2023/04/16 06:58:23;;;;;;;3.00;2.80;;;9.90;97.30;;;;;;4952838;28;20433;-85
2023/04/16 07:01:15;;;;;;;2.30;2.07;;;9.80;97.30;;;;;;4936424;28;20426;-85
2023/04/16 07:03:44;;;;;;;6.00;3.33;;;9.80;97.30;;;;;;4934281;29;20471;-85
2023/04/16 07:06:23;;;;;;;1.73;1.63;;;9.80;97.30;;;;;;4944755;28;20422;-85
2023/04/16 07:08:54;;;;;;;2.30;2.10;;;9.80;97.30;;;;;;4950866;29;20509;-88
2023/04/16 07:11:22;;;;;;;1.83;1.73;;;9.70;97.30;;;;;;4937462;28;20451;-85
2023/04/16 07:13:50;;;;;;;1.50;1.40;;;9.70;97.30;;;;;;4936715;29;20497;-85
2023/04/16 07:16:21;;;;;;;1.70;1.60;;;9.70;97.30;;;;;;4939920;29;20427;-86
2023/04/16 07:18:47;;;;;;;3.20;1.73;;;9.60;97.30;;;;;;4958688;28;21018;-85
2023/04/16 07:21:12;;;;;;;4.53;4.23;;;9.60;97.30;;;;;;4936787;29;20434;-84
2023/04/16 07:23:41;;;;;;;2.80;2.67;;;9.60;97.30;;;;;;4950553;29;20297;-85
2023/04/16 07:26:06;;;;;;;5.27;3.40;;;9.60;97.30;;;;;;4936810;29;20179;-85
2023/04/16 07:28:35;;;;;;;6.73;3.10;;;9.70;97.30;;;;;;4942915;29;20502;-84
2023/04/16 07:31:01;;;;;;;3.00;2.80;;;9.70;97.30;;;;;;4934546;29;20214;-84
2023/04/16 07:33:31;;;;;;;16.03;2.07;;;9.70;97.30;;;;;;4935530;29;20482;-85
2023/04/16 07:36:01;;;;;;;1.60;1.50;;;9.80;97.30;;;;;;4955662;28;20217;-85
2023/04/16 07:38:34;;;;;;;8.07;2.17;;;9.80;97.30;;;;;;4961776;28;20422;-84
2023/04/16 07:41:02;;;;;;;5.17;2.17;;;9.80;97.30;;;;;;4927486;29;20436;-85
2023/04/16 07:43:38;;;;;;;2.00;1.77;;;9.80;97.30;;;;;;4944047;28;20670;-85
2023/04/16 07:46:03;;;;;;;4.10;3.00;;;9.80;97.30;;;;;;4947636;29;20419;-85
2023/04/16 07:48:29;;;;;;;1.50;1.40;;;9.80;97.30;;;;;;4963142;28;20429;-85
2023/04/16 07:50:55;;;;;;;2.47;1.63;;;9.90;97.30;;;;;;4936835;29;20258;-86
2023/04/16 07:53:20;;;;;;;2.10;1.70;;;9.90;97.30;;;;;;4948599;28;20206;-84
2023/04/16 07:55:46;;;;;;;4.60;2.90;;;9.90;97.30;;;;;;4939383;28;20187;-86
2023/04/16 07:58:11;;;;;;;5.87;2.50;;;9.90;97.30;;;;;;4959539;28;20201;-86
2023/04/16 08:00:44;;;;;;;2.43;2.23;;;10.00;97.30;;;;;;4947097;29;20206;-82
2023/04/16 08:03:10;;;;;;;1.73;1.63;;;10.00;97.30;;;;;;4931357;28;20211;-86
2023/04/16 08:05:35;;;;;;;2.80;2.17;;;10.00;97.30;;;;;;4964197;28;20787;-85
2023/04/16 08:08:01;;;;;;;1.50;1.40;;;10.00;97.30;;;;;;4965466;28;20187;-85
2023/04/16 08:10:27;;;;;;;3.00;2.30;;;9.90;97.30;;;;;;4955622;28;20191;-86
2023/04/16 08:12:52;;;;;;;3.40;2.67;;;9.90;97.30;;;;;;4953939;28;20707;-85
2023/04/16 08:15:18;;;;;;;2.40;2.20;;;9.90;97.30;;;;;;4952315;28;20435;-83
2023/04/16 08:17:44;;;;;;;3.60;2.90;;;9.90;97.30;;;;;;4957894;28;20191;-87
2023/04/16 08:20:10;;;;;;;3.13;3.00;;;9.90;97.30;;;;;;4942498;29;20184;-87
2023/04/16 08:22:35;;;;;;;2.83;2.10;;;9.90;97.30;;;;;;4949846;28;20984;-86
2023/04/16 08:25:03;;;;;;;6.83;2.90;;;10.00;97.30;;;;;;4938815;29;20755;-83
2023/04/16 08:27:28;;;;;;;4.40;2.43;;;10.00;97.30;;;;;;4935024;28;20344;-86
2023/04/16 08:29:53;;;;;;;2.77;2.17;;;10.00;97.30;;;;;;4943776;28;20436;-86
2023/04/16 08:32:22;;;;;;;3.93;2.47;;;10.00;97.30;;;;;;4953726;28;20677;-82
2023/04/16 08:34:50;;;;;;;3.63;1.87;;;10.00;97.30;;;;;;4962344;28;20207;-84
2023/04/16 08:37:15;;;;;;;2.20;2.00;;;10.00;97.30;;;;;;4951128;28;20518;-84
2023/04/16 08:39:41;;;;;;;11.73;3.87;;;10.10;97.30;;;;;;4954259;28;20868;-84
2023/04/16 08:42:22;;;;;;;12.13;3.43;;;10.00;97.30;;;;;;4953244;29;20565;-84
2023/04/16 08:44:51;;;;;;;12.57;5.27;;;10.00;97.30;;;;;;4949068;28;20242;-84
2023/04/16 08:47:18;;;;;;;2.73;2.23;;;10.10;97.30;;;;;;4955615;28;20962;-84
2023/04/16 08:49:45;;;;;;;1.53;1.40;;;10.00;97.30;;;;;;4944341;29;20485;-84
2023/04/16 08:52:19;;;;;;;3.30;2.30;;;10.00;97.30;;;;;;4954369;28;20423;-84
2023/04/16 08:54:47;;;;;;;3.23;3.00;;;10.00;97.30;;;;;;4933951;28;20457;-84
2023/04/16 08:57:18;;;;;;;1.93;1.83;;;10.00;97.30;;;;;;4938371;28;20469;-84
2023/04/16 08:59:46;;;;;;;2.70;2.07;;;10.00;97.30;;;;;;4956321;28;20423;-84
2023/04/16 09:02:12;;;;;;;1.50;1.40;;;10.00;97.30;;;;;;4937032;29;20462;-87
2023/04/16 09:04:39;;;;;;;5.03;3.80;;;10.00;97.30;;;;;;4959422;28;20439;-84
2023/04/16 09:07:07;;;;;;;3.80;1.63;;;10.00;97.30;;;;;;4944165;28;20550;-84
2023/04/16 09:09:33;;;;;;;1.50;1.40;;;10.00;97.30;;;;;;4941434;28;20643;-84
2023/04/16 09:11:59;;;;;;;1.57;1.47;;;9.90;97.30;;;;;;4954816;29;20501;-85
2023/04/16 09:14:25;;;;;;;7.20;2.10;;;9.80;97.30;;;;;;4955299;28;20467;-85
2023/04/16 09:16:53;;;;;;;1.33;1.10;;;9.70;97.30;;;;;;4943252;29;20425;-85
2023/04/16 09:19:21;;;;;;;2.17;2.00;;;9.60;97.30;;;;;;4933712;28;20522;-84
2023/04/16 09:21:49;;;;;;;3.33;2.80;;;9.60;97.30;;;;;;4934348;29;20422;-84
2023/04/16 09:24:15;;;;;;;3.37;1.87;;;9.60;97.30;;;;;;4943947;28;20462;-84
2023/04/16 09:26:44;;;;;;;1.13;1.03;;;9.60;97.30;;;;;;4954695;28;20433;-84
2023/04/16 09:29:09;;;;;;;1.20;1.10;;;9.60;97.30;;;;;;4951448;28;20333;-84
2023/04/16 09:31:35;;;;;;;1.13;1.10;;;9.60;97.30;;;;;;4941644;28;20427;-84
2023/04/16 09:34:05;;;;;;;2.73;1.50;;;9.60;97.30;;;;;;4932554;29;20202;-84
2023/04/16 09:36:34;;;;;;;4.43;3.00;;;9.70;97.30;;;;;;4951011;29;20179;-83
2023/04/16 09:39:00;;;;;;;1.83;1.73;;;9.60;97.30;;;;;;4958048;28;20498;-84
2023/04/16 09:41:28;;;;;;;4.73;1.93;;;9.70;97.30;;;;;;4953730;28;20427;-84
2023/04/16 09:43:56;;;;;;;3.50;1.77;;;9.70;97.30;;;;;;4938216;29;20814;-84
2023/04/16 09:46:48;;;;;;;7.20;4.97;;;9.80;97.30;;;;;;4937305;29;20506;-83
2023/04/16 09:49:15;;;;;;;4.60;2.50;;;9.80;97.30;;;;;;4949066;28;20431;-83
2023/04/16 09:51:54;;;;;;;5.70;3.70;;;9.80;97.30;;;;;;4928740;29;20415;-84
2023/04/16 09:54:25;;;;;;;4.13;3.47;;;9.80;97.30;;;;;;4936974;29;20506;-84
2023/04/16 09:56:56;;;;;;;4.00;2.67;;;9.90;97.30;;;;;;4936827;29;20419;-81
2023/04/16 09:59:34;;;;;;;4.30;3.10;;;9.90;97.30;;;;;;4936657;29;20426;-85
2023/04/16 10:02:06;;;;;;;3.70;3.17;;;9.90;97.30;;;;;;4931264;29;20430;-83
2023/04/16 10:04:45;;;;;;;3.00;2.80;;;10.00;97.30;;;;;;4934019;29;20453;-84
2023/04/16 10:07:12;;;;;;;3.87;2.20;;;10.00;97.30;;;;;;4956324;28;20833;-85
2023/04/16 10:09:39;;;;;;;5.60;3.80;;;10.00;97.30;;;;;;4936863;29;20506;-84
2023/04/16 10:12:05;;;;;;;5.63;2.57;;;10.00;97.30;;;;;;4944958;29;20418;-86
2023/04/16 10:14:32;;;;;;;2.87;1.67;;;10.00;97.30;;;;;;4953957;28;21074;-85
2023/04/16 10:16:58;;;;;;;3.70;3.23;;;10.10;97.30;;;;;;4932952;29;20446;-86
2023/04/16 10:19:24;;;;;;;5.27;3.13;;;10.10;97.30;;;;;;4930414;29;20864;-85
2023/04/16 10:21:50;;;;;;;3.17;2.57;;;10.10;97.30;;;;;;4939890;29;20420;-85
2023/04/16 10:24:17;;;;;;;2.17;2.00;;;10.10;97.30;;;;;;4932220;29;21007;-85
2023/04/16 10:26:43;;;;;;;1.90;1.80;;;10.10;97.30;;;;;;4944122;28;20180;-86
2023/04/16 10:29:11;;;;;;;1.70;1.60;;;10.10;97.30;;;;;;4936767;28;20830;-85
2023/04/16 10:31:38;;;;;;;3.47;2.93;;;10.10;97.30;;;;;;4933678;29;20945;-84
2023/04/16 10:34:05;;;;;;;4.00;3.40;;;10.10;97.30;;;;;;4933967;29;20887;-84
2023/04/16 10:36:35;;;;;;;3.93;2.30;;;10.20;97.30;;;;;;4940600;29;20450;-85
2023/04/16 10:39:01;;;;;;;3.70;3.40;;;10.30;97.30;;;;;;4932927;29;20432;-85
2023/04/16 10:41:27;;;;;;;3.30;2.87;;;10.30;97.30;;;;;;4931695;29;20891;-84
2023/04/16 10:44:02;;;;;;;3.13;2.93;;;10.30;97.30;;;;;;4937304;29;20211;-87
2023/04/16 10:46:33;;;;;;;1.30;1.20;;;10.20;97.30;;;;;;4931863;29;20615;-84
2023/04/16 10:49:11;;;;;;;1.67;1.60;;;10.20;97.30;;;;;;4931003;29;20490;-84
2023/04/16 10:51:37;;;;;;;2.40;2.27;;;10.20;97.30;;;;;;4931636;29;20438;-84
2023/04/16 10:54:10;;;;;;;2.50;2.30;;;10.20;97.30;;;;;;4932755;29;20443;-84
2023/04/16 10:56:36;;;;;;;6.13;2.50;;;10.30;97.30;;;;;;4938617;29;20180;-84
2023/04/16 10:59:06;;;;;;;3.80;2.30;;;10.30;97.30;;;;;;4943005;29;20420;-84
2023/04/16 11:01:34;;;;;;;1.73;1.63;;;10.40;97.30;;;;;;4932229;29;20191;-84
2023/04/16 11:04:20;;;;;;;1.43;1.33;;;10.40;97.30;;;;;;4932092;29;20468;-85
2023/04/16 11:07:06;;;;;;;1.93;1.43;;;10.40;97.30;;;;;;4932568;29;20506;-85
2023/04/16 11:09:50;;;;;;;1.60;1.50;;;10.30;97.30;;;;;;4931635;29;20420;-80
2023/04/16 11:12:18;;;;;;;1.60;1.50;;;10.40;97.30;;;;;;4939594;29;20426;-85
2023/04/16 11:14:51;;;;;;;2.07;1.93;;;10.40;97.30;;;;;;4926438;29;20483;-85
2023/04/16 11:17:17;;;;;;;1.87;1.60;;;10.50;97.30;;;;;;4944104;28;20478;-85
2023/04/16 11:19:43;;;;;;;1.20;1.10;;;10.50;97.30;;;;;;4937942;29;20796;-85
2023/04/16 11:22:11;;;;;;;2.60;2.10;;;10.50;97.30;;;;;;4924868;29;20409;-85
2023/04/16 11:24:39;;;;;;;1.27;1.20;;;10.50;97.30;;;;;;4947567;29;20668;-85
2023/04/16 11:27:04;;;;;;;3.00;2.77;;;10.50;97.30;;;;;;4947615;28;20950;-85
2023/04/16 11:29:30;;;;;;;1.53;1.43;;;10.60;97.30;;;;;;4939969;29;20423;-85
2023/04/16 11:31:56;;;;;;;2.53;2.03;;;10.60;97.30;;;;;;4943052;29;20177;-86
2023/04/16 11:34:24;;;;;;;1.50;1.43;;;10.60;97.30;;;;;;4942550;29;20210;-86
2023/04/16 11:36:54;;;;;;;1.47;1.30;;;10.60;97.30;;;;;;4944491;28;20185;-85
2023/04/16 11:39:23;;;;;;;0.97;0.87;;;10.60;97.30;;;;;;4927525;29;20440;-85
2023/04/16 11:41:54;;;;;;;1.63;1.53;;;10.70;97.30;;;;;;4946878;28;20813;-84
2023/04/16 11:44:33;;;;;;;1.83;1.43;;;10.70;97.30;;;;;;4946627;28;20876;-84
2023/04/16 11:47:06;;;;;;;2.03;1.90;;;10.80;97.30;;;;;;4930903;29;20427;-84
2023/04/16 11:49:34;;;;;;;3.10;2.10;;;10.80;97.30;;;;;;4931127;29;20635;-84
2023/04/16 11:52:02;;;;;;;1.90;1.30;;;10.80;97.30;;;;;;4922600;29;20423;-85
2023/04/16 11:54:37;;;;;;;2.03;1.90;;;10.80;97.30;;;;;;4931738;29;20535;-85
2023/04/16 11:57:05;;;;;;;1.87;1.50;;;10.80;97.30;;;;;;4931574;29;20438;-80
2023/04/16 11:59:35;;;;;;;2.47;1.77;;;10.80;97.30;;;;;;4931356;29;20960;-84
2023/04/16 12:02:04;;;;;;;1.33;1.23;;;10.70;97.30;;;;;;4925834;29;20562;-84
2023/04/16 12:04:35;;;;;;;1.67;1.57;;;10.70;97.30;;;;;;4970984;23;20483;-84
2023/04/16 12:07:15;;;;;;;1.30;1.20;;;10.70;97.30;;;;;;4949954;28;20434;-82
2023/04/16 12:09:44;;;;;;;1.40;1.30;;;10.80;97.30;;;;;;4964177;28;20426;-85
2023/04/16 12:12:33;;;;;;;1.33;1.23;;;10.80;97.30;;;;;;4959848;28;20418;-85
2023/04/16 12:15:15;;;;;;;1.10;1.00;;;10.80;97.30;;;;;;4967747;28;20454;-83
2023/04/16 12:17:43;;;;;;;1.80;1.37;;;10.80;97.30;;;;;;4962466;28;20496;-84
2023/04/16 12:20:15;;;;;;;1.40;1.30;;;10.80;97.30;;;;;;4958551;28;20413;-85
2023/04/16 12:22:46;;;;;;;1.63;1.53;;;10.80;97.30;;;;;;4959140;28;20493;-83
2023/04/16 12:25:15;;;;;;;1.70;1.60;;;10.80;97.30;;;;;;4952767;28;20415;-85
2023/04/16 12:28:37;;;;;;;3.90;1.93;;;10.70;97.30;;;;;;4941077;28;20434;-85
2023/04/16 12:31:06;;;;;;;2.10;2.00;;;10.70;97.30;;;;;;4973747;28;20426;-85
2023/04/16 12:36:26;;;;;;;1.97;1.70;;;10.70;97.30;;;;;;4964649;28;20831;-84
2023/04/16 12:38:55;;;;;;;1.50;1.40;;;10.70;97.30;;;;;;4957407;28;20429;-85
2023/04/16 12:41:36;;;;;;;;;;;;;;;;;;;;;
2023/04/16 12:44:16;;;;;;;1.10;1.00;;;10.80;97.30;;;;;;4974699;28;20469;-85
2023/04/16 12:46:55;;;;;;;2.40;1.50;;;10.80;97.30;;;;;;4949998;28;20438;-85
2023/04/16 12:49:24;;;;;;;1.57;1.47;;;10.80;97.30;;;;;;4962416;28;20507;-85
2023/04/16 12:51:52;;;;;;;3.47;1.63;;;10.70;97.30;;;;;;4962230;28;20410;-81
2023/04/16 12:54:28;;;;;;;1.43;1.33;;;10.70;97.30;;;;;;4948824;28;20489;-85
2023/04/16 12:56:54;;;;;;;1.93;1.60;;;10.70;97.30;;;;;;4952701;28;20500;-85
2023/04/16 12:59:32;;;;;;;1.80;1.67;;;10.70;97.30;;;;;;4962603;28;20865;-85
2023/04/16 13:02:06;;;;;;;2.73;2.23;;;10.70;97.30;;;;;;4962340;28;20183;-85
2023/04/16 13:04:35;;;;;;;1.93;1.60;;;10.70;97.30;;;;;;4953066;28;20462;-85
2023/04/16 13:07:34;;;;;;;7.60;2.10;;;10.70;97.30;;;;;;4952454;28;20418;-86
2023/04/16 13:10:23;;;;;;;1.20;1.10;;;10.60;97.30;;;;;;4967600;28;20447;-85
2023/04/16 13:12:51;;;;;;;1.20;1.10;;;10.60;97.30;;;;;;4972441;28;20418;-85